sensor_id;sensor_type;location;lat;lon;timestamp;pressure;altitude;pressure_sealevel;temperature;humidity
34370;BME280;20635;55.812;37.560;2023-03-15T00:02:03;98743.91;;;22.78;28.62
34370;BME280;20635;55.812;37.560;2023-03-15T00:04:30;98745.53;;;22.79;28.50
34370;BME280;20635;55.812;37.560;2023-03-15T00:06:59;98749.50;;;22.78;28.64
34370;BME280;20635;55.812;37.560;2023-03-15T00:09:25;98741.63;;;22.81;28.51
34370;BME280;20635;55.812;37.560;2023-03-15T00:11:52;98744.72;;;22.79;28.36
34370;BME280;20635;55.812;37.560;2023-03-15T00:14:19;98746.69;;;22.78;28.54
34370;BME280;20635;55.812;37.560;2023-03-15T00:16:46;98734.38;;;22.79;28.72
34370;BME280;20635;55.812;37.560;2023-03-15T00:19:12;98741.13;;;22.78;28.75
34370;BME280;20635;55.812;37.560;2023-03-15T00:21:40;98753.59;;;22.81;28.45
34370;BME280;20635;55.812;37.560;2023-03-15T00:24:09;98748.84;;;22.82;28.82
34370;BME280;20635;55.812;37.560;2023-03-15T00:26:36;98747.19;;;22.81;28.48
34370;BME280;20635;55.812;37.560;2023-03-15T00:29:03;98736.84;;;22.81;28.54
34370;BME280;20635;55.812;37.560;2023-03-15T00:31:29;98739.13;;;22.79;28.67
34370;BME280;20635;55.812;37.560;2023-03-15T00:33:55;98737.16;;;22.79;28.60
34370;BME280;20635;55.812;37.560;2023-03-15T00:36:24;98736.84;;;22.81;28.36
34370;BME280;20635;55.812;37.560;2023-03-15T00:38:52;98726.00;;;22.79;28.70
34370;BME280;20635;55.812;37.560;2023-03-15T00:41:20;98726.84;;;22.80;28.27
34370;BME280;20635;55.812;37.560;2023-03-15T00:43:47;98736.34;;;22.79;28.35
34370;BME280;20635;55.812;37.560;2023-03-15T00:46:14;98739.13;;;22.79;28.57
34370;BME280;20635;55.812;37.560;2023-03-15T00:48:41;98733.91;;;22.77;28.61
34370;BME280;20635;55.812;37.560;2023-03-15T00:51:10;98749.19;;;22.80;28.31
34370;BME280;20635;55.812;37.560;2023-03-15T00:53:39;98727.97;;;22.79;28.28
34370;BME280;20635;55.812;37.560;2023-03-15T00:56:14;98739.63;;;22.81;28.77
34370;BME280;20635;55.812;37.560;2023-03-15T00:58:40;98742.28;;;22.77;28.76
34370;BME280;20635;55.812;37.560;2023-03-15T01:01:08;98735.53;;;22.78;28.37
34370;BME280;20635;55.812;37.560;2023-03-15T01:03:37;98736.34;;;22.79;28.26
34370;BME280;20635;55.812;37.560;2023-03-15T01:06:09;98734.38;;;22.79;28.53
34370;BME280;20635;55.812;37.560;2023-03-15T01:08:35;98738.31;;;22.78;28.33
34370;BME280;20635;55.812;37.560;2023-03-15T01:11:03;98735.06;;;22.76;28.29
34370;BME280;20635;55.812;37.560;2023-03-15T01:13:29;98739.84;;;22.76;28.31
34370;BME280;20635;55.812;37.560;2023-03-15T01:15:55;98745.06;;;22.77;28.48
34370;BME280;20635;55.812;37.560;2023-03-15T01:18:20;98733.09;;;22.77;28.66
34370;BME280;20635;55.812;37.560;2023-03-15T01:20:46;98731.47;;;22.76;28.42
34370;BME280;20635;55.812;37.560;2023-03-15T01:23:12;98741.47;;;22.77;28.67
34370;BME280;20635;55.812;37.560;2023-03-15T01:25:39;98731.94;;;22.78;28.69
34370;BME280;20635;55.812;37.560;2023-03-15T01:28:05;98740.66;;;22.76;28.76
34370;BME280;20635;55.812;37.560;2023-03-15T01:30:31;98730.28;;;22.77;28.68
34370;BME280;20635;55.812;37.560;2023-03-15T01:32:57;98735.06;;;22.76;28.53
34370;BME280;20635;55.812;37.560;2023-03-15T01:35:23;98735.88;;;22.77;28.92
34370;BME280;20635;55.812;37.560;2023-03-15T01:37:50;98728.66;;;22.76;28.54
34370;BME280;20635;55.812;37.560;2023-03-15T01:40:16;98721.91;;;22.77;28.68
34370;BME280;20635;55.812;37.560;2023-03-15T01:43:09;98734.38;;;22.79;28.43
34370;BME280;20635;55.812;37.560;2023-03-15T01:46:01;98732.88;;;22.82;28.68
34370;BME280;20635;55.812;37.560;2023-03-15T01:51:03;98734.19;;;22.85;28.67
34370;BME280;20635;55.812;37.560;2023-03-15T01:53:31;98741.13;;;22.78;28.48
34370;BME280;20635;55.812;37.560;2023-03-15T01:55:59;98744.25;;;22.77;28.57
34370;BME280;20635;55.812;37.560;2023-03-15T01:58:33;98737.03;;;22.76;28.56
34370;BME280;20635;55.812;37.560;2023-03-15T02:01:01;98744.25;;;22.77;28.56
34370;BME280;20635;55.812;37.560;2023-03-15T02:03:38;98734.25;;;22.76;28.69
34370;BME280;20635;55.812;37.560;2023-03-15T02:06:16;98742.63;;;22.76;28.63
34370;BME280;20635;55.812;37.560;2023-03-15T02:08:52;98740.66;;;22.76;28.69
34370;BME280;20635;55.812;37.560;2023-03-15T02:11:21;98743.75;;;22.75;28.32
34370;BME280;20635;55.812;37.560;2023-03-15T02:13:49;98750.16;;;22.75;28.70
34370;BME280;20635;55.812;37.560;2023-03-15T02:16:17;98736.19;;;22.75;28.63
34370;BME280;20635;55.812;37.560;2023-03-15T02:18:50;98745.75;;;22.74;28.30
34370;BME280;20635;55.812;37.560;2023-03-15T02:21:32;98761.84;;;22.77;28.55
34370;BME280;20635;55.812;37.560;2023-03-15T02:24:11;98751.47;;;22.78;28.62
34370;BME280;20635;55.812;37.560;2023-03-15T02:26:46;98752.97;;;22.75;28.26
34370;BME280;20635;55.812;37.560;2023-03-15T02:29:13;98764.13;;;22.75;28.45
34370;BME280;20635;55.812;37.560;2023-03-15T02:31:39;98759.72;;;22.74;28.23
34370;BME280;20635;55.812;37.560;2023-03-15T02:34:06;98751.69;;;22.73;28.54
34370;BME280;20635;55.812;37.560;2023-03-15T02:36:33;98752.50;;;22.73;28.36
34370;BME280;20635;55.812;37.560;2023-03-15T02:39:00;98758.06;;;22.73;28.58
34370;BME280;20635;55.812;37.560;2023-03-15T02:41:45;98761.34;;;22.75;28.72
34370;BME280;20635;55.812;37.560;2023-03-15T02:44:30;98758.22;;;22.77;29.20
34370;BME280;20635;55.812;37.560;2023-03-15T02:47:01;98756.59;;;22.76;28.96
34370;BME280;20635;55.812;37.560;2023-03-15T02:49:32;98754.13;;;22.74;29.50
34370;BME280;20635;55.812;37.560;2023-03-15T02:52:00;98750.16;;;22.75;29.26
34370;BME280;20635;55.812;37.560;2023-03-15T02:54:26;98752.16;;;22.75;29.20
34370;BME280;20635;55.812;37.560;2023-03-15T02:56:52;98745.41;;;22.76;29.37
34370;BME280;20635;55.812;37.560;2023-03-15T02:59:18;98750.50;;;22.74;29.03
34370;BME280;20635;55.812;37.560;2023-03-15T03:01:44;98754.94;;;22.75;28.95
34370;BME280;20635;55.812;37.560;2023-03-15T03:04:11;98754.13;;;22.74;28.81
34370;BME280;20635;55.812;37.560;2023-03-15T03:06:37;98756.59;;;22.76;28.77
34370;BME280;20635;55.812;37.560;2023-03-15T03:09:05;98756.91;;;22.74;28.69
34370;BME280;20635;55.812;37.560;2023-03-15T03:11:31;98768.91;;;22.75;28.68
34370;BME280;20635;55.812;37.560;2023-03-15T03:13:56;98750.50;;;22.74;28.87
34370;BME280;20635;55.812;37.560;2023-03-15T03:16:22;98758.06;;;22.73;28.60
34370;BME280;20635;55.812;37.560;2023-03-15T03:18:48;98762.19;;;22.76;28.64
34370;BME280;20635;55.812;37.560;2023-03-15T03:21:15;98756.91;;;22.74;28.54
34370;BME280;20635;55.812;37.560;2023-03-15T03:23:42;98760.53;;;22.75;28.71
34370;BME280;20635;55.812;37.560;2023-03-15T03:26:13;98753.81;;;22.76;28.42
34370;BME280;20635;55.812;37.560;2023-03-15T03:28:43;98766.91;;;22.75;28.62
34370;BME280;20635;55.812;37.560;2023-03-15T03:31:18;98770.22;;;22.77;28.68
34370;BME280;20635;55.812;37.560;2023-03-15T03:33:46;98757.72;;;22.75;28.76
34370;BME280;20635;55.812;37.560;2023-03-15T03:36:12;98765.28;;;22.74;28.41
34370;BME280;20635;55.812;37.560;2023-03-15T03:38:40;98760.88;;;22.73;28.57
34370;BME280;20635;55.812;37.560;2023-03-15T03:41:07;98767.28;;;22.74;28.60
34370;BME280;20635;55.812;37.560;2023-03-15T03:43:34;98760.88;;;22.73;28.76
34370;BME280;20635;55.812;37.560;2023-03-15T03:46:00;98758.88;;;22.74;28.34
34370;BME280;20635;55.812;37.560;2023-03-15T03:48:26;98758.06;;;22.73;28.61
34370;BME280;20635;55.812;37.560;2023-03-15T03:50:52;98767.28;;;22.74;28.62
34370;BME280;20635;55.812;37.560;2023-03-15T03:53:18;98770.41;;;22.72;28.55
34370;BME280;20635;55.812;37.560;2023-03-15T03:55:44;98776.81;;;22.73;28.62
34370;BME280;20635;55.812;37.560;2023-03-15T03:58:15;98774.84;;;22.73;28.39
34370;BME280;20635;55.812;37.560;2023-03-15T04:00:47;98778.44;;;22.74;28.63
34370;BME280;20635;55.812;37.560;2023-03-15T04:03:13;98777.63;;;22.73;28.30
34370;BME280;20635;55.812;37.560;2023-03-15T04:05:44;98785.19;;;22.73;28.50
34370;BME280;20635;55.812;37.560;2023-03-15T04:08:15;98784.38;;;22.72;28.42
34370;BME280;20635;55.812;37.560;2023-03-15T04:10:41;98787.16;;;22.72;28.37
34370;BME280;20635;55.812;37.560;2023-03-15T04:13:07;98785.19;;;22.73;28.53
34370;BME280;20635;55.812;37.560;2023-03-15T04:15:33;98785.19;;;22.73;28.46
34370;BME280;20635;55.812;37.560;2023-03-15T04:17:59;98787.97;;;22.73;28.74
34370;BME280;20635;55.812;37.560;2023-03-15T04:20:34;98776.81;;;22.73;29.08
34370;BME280;20635;55.812;37.560;2023-03-15T04:23:01;98779.59;;;22.73;29.16
34370;BME280;20635;55.812;37.560;2023-03-15T04:25:47;98788.44;;;22.75;29.03
34370;BME280;20635;55.812;37.560;2023-03-15T04:28:34;98781.22;;;22.74;28.70
34370;BME280;20635;55.812;37.560;2023-03-15T04:31:25;98774.84;;;22.73;28.90
34370;BME280;20635;55.812;37.560;2023-03-15T04:34:05;98779.25;;;22.74;28.90
34370;BME280;20635;55.812;37.560;2023-03-15T04:36:57;98776.81;;;22.73;28.78
34370;BME280;20635;55.812;37.560;2023-03-15T04:39:37;98792.41;;;22.74;28.69
34370;BME280;20635;55.812;37.560;2023-03-15T04:42:26;98793.56;;;22.73;28.62
34370;BME280;20635;55.812;37.560;2023-03-15T04:45:25;98798.81;;;22.74;28.67
34370;BME280;20635;55.812;37.560;2023-03-15T04:47:57;98797.53;;;22.72;28.71
34370;BME280;20635;55.812;37.560;2023-03-15T04:50:41;98807.53;;;22.73;28.61
34370;BME280;20635;55.812;37.560;2023-03-15T04:53:36;98803.91;;;22.72;28.76
34370;BME280;20635;55.812;37.560;2023-03-15T04:56:32;98809.50;;;22.72;28.82
34370;BME280;20635;55.812;37.560;2023-03-15T04:59:16;98810.66;;;22.71;28.86
34370;BME280;20635;55.812;37.560;2023-03-15T05:02:08;98817.06;;;22.72;28.84
34370;BME280;20635;55.812;37.560;2023-03-15T05:04:52;98827.44;;;22.71;28.70
34370;BME280;20635;55.812;37.560;2023-03-15T05:07:44;98827.09;;;22.73;28.70
34370;BME280;20635;55.812;37.560;2023-03-15T05:10:28;98822.66;;;22.72;28.51
34370;BME280;20635;55.812;37.560;2023-03-15T05:13:13;98831.84;;;22.72;28.63
34370;BME280;20635;55.812;37.560;2023-03-15T05:15:59;98838.59;;;22.71;28.52
34370;BME280;20635;55.812;37.560;2023-03-15T05:18:34;98835.81;;;22.71;28.38
34370;BME280;20635;55.812;37.560;2023-03-15T05:21:18;98843.34;;;22.71;28.70
34370;BME280;20635;55.812;37.560;2023-03-15T05:24:04;98844.19;;;22.71;28.55
34370;BME280;20635;55.812;37.560;2023-03-15T05:26:35;98846.63;;;22.73;28.51
34370;BME280;20635;55.812;37.560;2023-03-15T05:29:33;98851.41;;;22.72;28.75
34370;BME280;20635;55.812;37.560;2023-03-15T05:32:17;98854.19;;;22.72;28.82
34370;BME280;20635;55.812;37.560;2023-03-15T05:35:06;98856.66;;;22.74;28.84
34370;BME280;20635;55.812;37.560;2023-03-15T05:37:47;98855.00;;;22.73;28.77
34370;BME280;20635;55.812;37.560;2023-03-15T05:40:39;98859.44;;;22.74;28.72
34370;BME280;20635;55.812;37.560;2023-03-15T05:43:16;98857.00;;;22.72;28.74
34370;BME280;20635;55.812;37.560;2023-03-15T05:45:52;98867.81;;;22.74;28.62
34370;BME280;20635;55.812;37.560;2023-03-15T05:48:38;98872.25;;;22.75;28.81
34370;BME280;20635;55.812;37.560;2023-03-15T05:51:27;98862.22;;;22.74;28.88
34370;BME280;20635;55.812;37.560;2023-03-15T05:54:07;98865.84;;;22.74;29.04
34370;BME280;20635;55.812;37.560;2023-03-15T05:56:48;98865.03;;;22.74;28.95
34370;BME280;20635;55.812;37.560;2023-03-15T05:59:21;98870.25;;;22.75;28.86
34370;BME280;20635;55.812;37.560;2023-03-15T06:02:16;98869.44;;;22.75;29.05
34370;BME280;20635;55.812;37.560;2023-03-15T06:04:51;98875.84;;;22.75;29.02
34370;BME280;20635;55.812;37.560;2023-03-15T06:07:24;98871.94;;;22.76;29.32
34370;BME280;20635;55.812;37.560;2023-03-15T06:09:50;98864.38;;;22.77;29.20
34370;BME280;20635;55.812;37.560;2023-03-15T06:12:18;98871.09;;;22.76;29.17
34370;BME280;20635;55.812;37.560;2023-03-15T06:14:44;98869.13;;;22.76;29.35
34370;BME280;20635;55.812;37.560;2023-03-15T06:17:10;98871.59;;;22.78;29.15
34370;BME280;20635;55.812;37.560;2023-03-15T06:19:37;98874.38;;;22.78;29.11
34370;BME280;20635;55.812;37.560;2023-03-15T06:22:03;98876.34;;;22.77;28.94
34370;BME280;20635;55.812;37.560;2023-03-15T06:24:36;98878.81;;;22.79;29.06
34370;BME280;20635;55.812;37.560;2023-03-15T06:27:02;98873.56;;;22.77;29.17
34370;BME280;20635;55.812;37.560;2023-03-15T06:29:29;98884.72;;;22.77;29.17
34370;BME280;20635;55.812;37.560;2023-03-15T06:31:56;98884.38;;;22.79;29.10
34370;BME280;20635;55.812;37.560;2023-03-15T06:34:24;98887.19;;;22.79;29.10
34370;BME280;20635;55.812;37.560;2023-03-15T06:36:50;98876.00;;;22.79;28.93
34370;BME280;20635;55.812;37.560;2023-03-15T06:39:17;98880.47;;;22.80;28.90
34370;BME280;20635;55.812;37.560;2023-03-15T06:41:43;98884.88;;;22.81;29.06
34370;BME280;20635;55.812;37.560;2023-03-15T06:44:15;98886.88;;;22.81;28.85
34370;BME280;20635;55.812;37.560;2023-03-15T06:46:41;98903.28;;;22.82;29.13
34370;BME280;20635;55.812;37.560;2023-03-15T06:49:07;98896.88;;;22.82;28.80
34370;BME280;20635;55.812;37.560;2023-03-15T06:51:33;98900.50;;;22.82;28.92
34370;BME280;20635;55.812;37.560;2023-03-15T06:53:59;98902.13;;;22.83;29.00
34370;BME280;20635;55.812;37.560;2023-03-15T06:56:25;98903.75;;;22.84;29.30
34370;BME280;20635;55.812;37.560;2023-03-15T06:58:51;98899.81;;;22.85;29.13
34370;BME280;20635;55.812;37.560;2023-03-15T07:01:17;98911.00;;;22.85;29.23
34370;BME280;20635;55.812;37.560;2023-03-15T07:03:43;98907.41;;;22.85;28.99
34370;BME280;20635;55.812;37.560;2023-03-15T07:06:08;98921.03;;;22.86;28.85
34370;BME280;20635;55.812;37.560;2023-03-15T07:08:34;98918.22;;;22.86;28.55
34370;BME280;20635;55.812;37.560;2023-03-15T07:11:02;98911.00;;;22.85;28.87
34370;BME280;20635;55.812;37.560;2023-03-15T07:13:28;98905.88;;;22.87;28.40
34370;BME280;20635;55.812;37.560;2023-03-15T07:15:55;98915.78;;;22.85;28.76
34370;BME280;20635;55.812;37.560;2023-03-15T07:18:21;98927.41;;;22.87;28.49
34370;BME280;20635;55.812;37.560;2023-03-15T07:20:55;98933.47;;;22.89;28.71
34370;BME280;20635;55.812;37.560;2023-03-15T07:23:21;98927.06;;;22.88;28.54
34370;BME280;20635;55.812;37.560;2023-03-15T07:25:47;98937.16;;;22.89;28.80
34370;BME280;20635;55.812;37.560;2023-03-15T07:28:13;98929.88;;;22.88;28.46
34370;BME280;20635;55.812;37.560;2023-03-15T07:30:39;98929.06;;;22.88;28.88
34370;BME280;20635;55.812;37.560;2023-03-15T07:33:05;98935.47;;;22.88;28.77
34370;BME280;20635;55.812;37.560;2023-03-15T07:35:31;98935.19;;;22.90;28.98
34370;BME280;20635;55.812;37.560;2023-03-15T07:37:57;98940.41;;;22.91;28.67
34370;BME280;20635;55.812;37.560;2023-03-15T07:40:23;98939.59;;;22.91;28.85
34370;BME280;20635;55.812;37.560;2023-03-15T07:42:51;98936.00;;;22.90;28.73
34370;BME280;20635;55.812;37.560;2023-03-15T07:45:17;98935.66;;;22.92;28.89
34370;BME280;20635;55.812;37.560;2023-03-15T07:47:43;98934.84;;;22.91;28.69
34370;BME280;20635;55.812;37.560;2023-03-15T07:50:09;98939.59;;;22.91;28.92
34370;BME280;20635;55.812;37.560;2023-03-15T07:52:36;98938.44;;;22.92;28.57
34370;BME280;20635;55.812;37.560;2023-03-15T07:55:03;98949.63;;;22.92;28.74
34370;BME280;20635;55.812;37.560;2023-03-15T07:57:32;98946.00;;;22.91;28.66
34370;BME280;20635;55.812;37.560;2023-03-15T07:59:58;98946.81;;;22.92;28.62
34370;BME280;20635;55.812;37.560;2023-03-15T08:02:24;98946.00;;;22.91;28.67
34370;BME280;20635;55.812;37.560;2023-03-15T08:04:50;98951.59;;;22.91;28.62
34370;BME280;20635;55.812;37.560;2023-03-15T08:07:16;98958.00;;;22.92;28.46
34370;BME280;20635;55.812;37.560;2023-03-15T08:09:42;98966.38;;;22.92;28.66
34370;BME280;20635;55.812;37.560;2023-03-15T08:12:08;98957.19;;;22.91;28.60
34370;BME280;20635;55.812;37.560;2023-03-15T08:14:34;98960.78;;;22.92;28.38
34370;BME280;20635;55.812;37.560;2023-03-15T08:17:00;98964.41;;;22.92;28.18
34370;BME280;20635;55.812;37.560;2023-03-15T08:19:26;98956.03;;;22.92;28.51
34370;BME280;20635;55.812;37.560;2023-03-15T08:21:52;98960.78;;;22.92;28.38
34370;BME280;20635;55.812;37.560;2023-03-15T08:24:19;98964.41;;;22.92;28.20
34370;BME280;20635;55.812;37.560;2023-03-15T08:26:46;98964.41;;;22.92;28.52
34370;BME280;20635;55.812;37.560;2023-03-15T08:29:12;98967.19;;;22.92;28.50
34370;BME280;20635;55.812;37.560;2023-03-15T08:31:38;98965.22;;;22.93;28.51
34370;BME280;20635;55.812;37.560;2023-03-15T08:34:04;98970.00;;;22.92;28.76
34370;BME280;20635;55.812;37.560;2023-03-15T08:36:30;98975.25;;;22.94;28.64
34370;BME280;20635;55.812;37.560;2023-03-15T08:38:57;98971.63;;;22.93;29.30
34370;BME280;20635;55.812;37.560;2023-03-15T08:41:23;98964.91;;;22.94;29.03
34370;BME280;20635;55.812;37.560;2023-03-15T08:43:49;98970.50;;;22.94;29.96
34370;BME280;20635;55.812;37.560;2023-03-15T08:46:14;98961.28;;;22.94;29.92
34370;BME280;20635;55.812;37.560;2023-03-15T08:48:42;98952.91;;;22.94;30.04
34370;BME280;20635;55.812;37.560;2023-03-15T08:51:07;98966.88;;;22.94;30.06
34370;BME280;20635;55.812;37.560;2023-03-15T08:53:34;98961.28;;;22.94;30.15
34370;BME280;20635;55.812;37.560;2023-03-15T08:56:00;98964.09;;;22.94;29.87
34370;BME280;20635;55.812;37.560;2023-03-15T08:58:26;98959.31;;;22.94;30.19
34370;BME280;20635;55.812;37.560;2023-03-15T09:00:52;98960.94;;;22.95;30.25
34370;BME280;20635;55.812;37.560;2023-03-15T09:03:18;98959.31;;;22.94;30.16
34370;BME280;20635;55.812;37.560;2023-03-15T09:05:45;98966.53;;;22.95;29.99
34370;BME280;20635;55.812;37.560;2023-03-15T09:08:11;98952.91;;;22.94;29.99
34370;BME280;20635;55.812;37.560;2023-03-15T09:10:38;98957.66;;;22.93;30.03
34370;BME280;20635;55.812;37.560;2023-03-15T09:13:04;98964.09;;;22.94;30.14
34370;BME280;20635;55.812;37.560;2023-03-15T09:15:30;98958.16;;;22.95;30.09
34370;BME280;20635;55.812;37.560;2023-03-15T09:17:56;98959.31;;;22.94;29.84
34370;BME280;20635;55.812;37.560;2023-03-15T09:20:22;98953.72;;;22.94;30.02
34370;BME280;20635;55.812;37.560;2023-03-15T09:22:55;98959.31;;;22.94;30.03
34370;BME280;20635;55.812;37.560;2023-03-15T09:25:22;98963.75;;;22.95;30.02
34370;BME280;20635;55.812;37.560;2023-03-15T09:27:48;98948.97;;;22.95;29.97
34370;BME280;20635;55.812;37.560;2023-03-15T09:30:15;98948.97;;;22.95;29.59
34370;BME280;20635;55.812;37.560;2023-03-15T09:32:41;98954.84;;;22.93;29.50
34370;BME280;20635;55.812;37.560;2023-03-15T09:35:12;98958.50;;;22.94;29.66
34370;BME280;20635;55.812;37.560;2023-03-15T09:37:38;98959.31;;;22.94;29.12
34370;BME280;20635;55.812;37.560;2023-03-15T09:40:05;98952.06;;;22.93;29.28
34370;BME280;20635;55.812;37.560;2023-03-15T09:46:04;98966.19;;;22.97;29.18
34370;BME280;20635;55.812;37.560;2023-03-15T09:50:59;98959.13;;;22.99;29.26
34370;BME280;20635;55.812;37.560;2023-03-15T09:53:55;98966.69;;;22.99;29.46
34370;BME280;20635;55.812;37.560;2023-03-15T09:56:30;98968.19;;;22.96;29.32
34370;BME280;20635;55.812;37.560;2023-03-15T09:58:59;98967.00;;;22.97;29.50
34370;BME280;20635;55.812;37.560;2023-03-15T10:01:39;98972.28;;;22.99;29.25
34370;BME280;20635;55.812;37.560;2023-03-15T10:04:26;98966.69;;;22.99;29.30
34370;BME280;20635;55.812;37.560;2023-03-15T10:06:55;98962.59;;;22.96;29.49
34370;BME280;20635;55.812;37.560;2023-03-15T10:09:24;98961.44;;;22.97;29.72
34370;BME280;20635;55.812;37.560;2023-03-15T10:16:55;98957.50;;;22.98;29.43
34370;BME280;20635;55.812;37.560;2023-03-15T10:22:14;98960.78;;;23.00;29.56
34370;BME280;20635;55.812;37.560;2023-03-15T10:24:49;98957.63;;;23.02;29.48
34370;BME280;20635;55.812;37.560;2023-03-15T10:29:57;98955.66;;;23.02;29.49
34370;BME280;20635;55.812;37.560;2023-03-15T10:32:29;98958.94;;;23.04;29.72
34370;BME280;20635;55.812;37.560;2023-03-15T10:34:56;98955.00;;;23.06;29.69
34370;BME280;20635;55.812;37.560;2023-03-15T10:37:24;98961.09;;;23.08;29.79
34370;BME280;20635;55.812;37.560;2023-03-15T10:39:54;98954.66;;;23.07;29.82
34370;BME280;20635;55.812;37.560;2023-03-15T10:44:51;98957.59;;;23.11;29.72
34370;BME280;20635;55.812;37.560;2023-03-15T10:47:19;98964.00;;;23.11;29.75
34370;BME280;20635;55.812;37.560;2023-03-15T10:49:45;98960.41;;;23.11;29.74
34370;BME280;20635;55.812;37.560;2023-03-15T10:52:38;98961.38;;;23.15;29.88
34370;BME280;20635;55.812;37.560;2023-03-15T10:55:19;98963.34;;;23.14;29.69
34370;BME280;20635;55.812;37.560;2023-03-15T10:57:55;98959.88;;;23.17;29.75
34370;BME280;20635;55.812;37.560;2023-03-15T11:02:50;98955.44;;;23.16;29.83
34370;BME280;20635;55.812;37.560;2023-03-15T11:05:18;98953.47;;;23.17;29.45
34370;BME280;20635;55.812;37.560;2023-03-15T11:08:02;98953.59;;;23.20;29.68
34370;BME280;20635;55.812;37.560;2023-03-15T11:10:38;98963.66;;;23.21;29.62
34370;BME280;20635;55.812;37.560;2023-03-15T11:13:09;98958.38;;;23.20;29.84
34370;BME280;20635;55.812;37.560;2023-03-15T11:15:37;98953.97;;;23.19;29.87
34370;BME280;20635;55.812;37.560;2023-03-15T11:18:03;98953.97;;;23.19;29.62
34370;BME280;20635;55.812;37.560;2023-03-15T11:20:38;98954.13;;;23.22;29.47
34370;BME280;20635;55.812;37.560;2023-03-15T11:23:17;98966.94;;;23.23;29.43
34370;BME280;20635;55.812;37.560;2023-03-15T11:25:45;98969.25;;;23.21;29.57
34370;BME280;20635;55.812;37.560;2023-03-15T11:28:21;98967.75;;;23.24;29.75
34370;BME280;20635;55.812;37.560;2023-03-15T11:30:48;98959.34;;;23.24;29.59
34370;BME280;20635;55.812;37.560;2023-03-15T11:36:06;98953.09;;;23.27;29.72
34370;BME280;20635;55.812;37.560;2023-03-15T11:38:40;98954.38;;;23.29;29.68
34370;BME280;20635;55.812;37.560;2023-03-15T11:41:24;98953.25;;;23.31;29.31
34370;BME280;20635;55.812;37.560;2023-03-15T11:44:09;98945.97;;;23.38;29.40
34370;BME280;20635;55.812;37.560;2023-03-15T11:46:41;98946.78;;;23.39;29.45
34370;BME280;20635;55.812;37.560;2023-03-15T11:49:14;98938.38;;;23.39;29.01
34370;BME280;20635;55.812;37.560;2023-03-15T11:51:42;98945.31;;;23.41;29.06
34370;BME280;20635;55.812;37.560;2023-03-15T11:54:18;98933.44;;;23.44;29.10
34370;BME280;20635;55.812;37.560;2023-03-15T12:07:03;98949.84;;;23.54;28.99
34370;BME280;20635;55.812;37.560;2023-03-15T12:12:04;98950.09;;;23.62;29.15
34370;BME280;20635;55.812;37.560;2023-03-15T12:14:35;98946.16;;;23.63;29.09
34370;BME280;20635;55.812;37.560;2023-03-15T12:17:38;98956.03;;;23.69;29.08
34370;BME280;20635;55.812;37.560;2023-03-15T12:20:17;98955.22;;;23.68;28.80
34370;BME280;20635;55.812;37.560;2023-03-15T12:22:52;98962.09;;;23.71;28.85
34370;BME280;20635;55.812;37.560;2023-03-15T12:25:31;98954.53;;;23.71;28.75
34370;BME280;20635;55.812;37.560;2023-03-15T12:28:04;98960.13;;;23.71;28.91
34370;BME280;20635;55.812;37.560;2023-03-15T12:30:41;98968.19;;;23.73;29.11
34370;BME280;20635;55.812;37.560;2023-03-15T12:33:17;98962.59;;;23.73;29.14
34370;BME280;20635;55.812;37.560;2023-03-15T12:35:44;98955.34;;;23.72;29.40
34370;BME280;20635;55.812;37.560;2023-03-15T12:38:22;98961.91;;;23.76;29.17
34370;BME280;20635;55.812;37.560;2023-03-15T12:40:54;98960.25;;;23.75;29.39
34370;BME280;20635;55.812;37.560;2023-03-15T12:43:44;98970.09;;;23.81;29.13
34370;BME280;20635;55.812;37.560;2023-03-15T12:49:12;98961.00;;;23.84;29.30
34370;BME280;20635;55.812;37.560;2023-03-15T12:51:53;98965.41;;;23.94;29.41
34370;BME280;20635;55.812;37.560;2023-03-15T12:54:21;98954.69;;;23.96;29.43
34370;BME280;20635;55.812;37.560;2023-03-15T12:57:02;98966.50;;;24.01;29.62
34370;BME280;20635;55.812;37.560;2023-03-15T12:59:41;98970.25;;;24.05;29.60
34370;BME280;20635;55.812;37.560;2023-03-15T13:02:35;98974.38;;;24.08;29.89
34370;BME280;20635;55.812;37.560;2023-03-15T13:07:56;98975.44;;;24.16;29.54
34370;BME280;20635;55.812;37.560;2023-03-15T13:13:22;98974.09;;;24.22;29.76
34370;BME280;20635;55.812;37.560;2023-03-15T13:18:28;98974.41;;;24.20;29.72
34370;BME280;20635;55.812;37.560;2023-03-15T13:23:49;98961.50;;;24.28;29.70
34370;BME280;20635;55.812;37.560;2023-03-15T13:29:15;98952.22;;;24.36;29.60
34370;BME280;20635;55.812;37.560;2023-03-15T13:31:45;98949.91;;;24.38;29.32
34370;BME280;20635;55.812;37.560;2023-03-15T13:34:30;98949.84;;;24.47;29.60
34370;BME280;20635;55.812;37.560;2023-03-15T13:36:58;98951.16;;;24.49;29.53
34370;BME280;20635;55.812;37.560;2023-03-15T13:39:32;98945.31;;;24.54;29.49
34370;BME280;20635;55.812;37.560;2023-03-15T13:42:21;98949.06;;;24.59;29.56
34370;BME280;20635;55.812;37.560;2023-03-15T13:44:46;98947.22;;;24.63;29.40
34370;BME280;20635;55.812;37.560;2023-03-15T13:47:19;98946.19;;;24.67;29.27
34370;BME280;20635;55.812;37.560;2023-03-15T13:49:47;98949.44;;;24.69;29.48
34370;BME280;20635;55.812;37.560;2023-03-15T13:52:16;98953.06;;;24.70;29.38
34370;BME280;20635;55.812;37.560;2023-03-15T13:54:42;98953.56;;;24.72;29.40
34370;BME280;20635;55.812;37.560;2023-03-15T13:57:11;98948.78;;;24.72;29.41
34370;BME280;20635;55.812;37.560;2023-03-15T13:59:42;98959.97;;;24.72;29.34
34370;BME280;20635;55.812;37.560;2023-03-15T14:02:24;98952.75;;;24.71;29.18
34370;BME280;20635;55.812;37.560;2023-03-15T14:04:55;98960.34;;;24.71;29.20
34370;BME280;20635;55.812;37.560;2023-03-15T14:07:26;98956.69;;;24.70;29.18
34370;BME280;20635;55.812;37.560;2023-03-15T14:10:22;98956.00;;;24.73;29.47